Amboy, Washington
Current Conditions -  °F | °C
As of 12:16 AM on Sunday 23 Nov 2014 (Local Time) from KSPB Reporting Station
Haze Haze  
Wind Chill: 37°   Ceiling: Unl
Heat Index: 37°   Visibility: 3mi
Dew Point: 36°   Wind: 0mph
Humidity: 96%   Direction: NA
Pressure: 30.25"   Gusts: NA
Location:  45.91°N, 122.45°W
Report Text: KSPB 230816Z AUTO 00000KT 3SM BR FEW050 SCT065 03/02 A3025 RMK AO2 T00280022
Loading
Personal Weather Stations






























Interactive Weather Map New forecast layout! Learn more

10-Day Weather Forecast

Advertisements
Track Severe Weather on mobile